Time;durP1;ratioP1;P1;durP2;ratioP2;P2;SDS_P1;SDS_P2;PMS_P1;PMS_P2;Temp;Humidity;BMP_temperature;BMP_pressure;BME280_temperature;BME280_humidity;BME280_pressure;Samples;Min_cycle;Max_cycle;Signal;HPM_P1;HPM_P2
2022/08/06 00:01:46;;;;;;;;;;;;;;;25.63;53.32;100491.31;7407610;19;1779;-54
2022/08/06 00:04:14;;;;;;;;;;;;;;;25.66;53.37;100492.81;7410395;19;1475;-55
2022/08/06 00:06:42;;;;;;;;;;;;;;;25.63;53.79;100504.03;7410149;19;1539;-55
2022/08/06 00:09:11;;;;;;;;;;;;;;;25.57;53.51;100490.19;7410510;19;1356;-55
2022/08/06 00:11:43;;;;;;;;;;;;;;;25.59;53.64;100496.25;7411031;19;1743;-54
2022/08/06 00:14:11;;;;;;;;;;;;;;;25.59;53.76;100496.25;7409442;19;1861;-55
2022/08/06 00:16:40;;;;;;;;;;;;;;;25.64;53.78;100492.16;7410105;19;1467;-55
2022/08/06 00:19:08;;;;;;;;;;;;;;;25.64;53.99;100498.41;7410216;19;1447;-54
2022/08/06 00:21:36;;;;;;;;;;;;;;;25.63;53.60;100488.59;7410155;19;1503;-55
2022/08/06 00:24:05;;;;;;;;;;;;;;;25.58;53.61;100496.44;7410330;19;1305;-55
2022/08/06 00:26:33;;;;;;;;;;;;;;;25.56;53.46;100495.78;7410463;19;1697;-55
2022/08/06 00:29:04;;;;;;;;;;;;;;;25.60;54.13;100505.22;7409136;19;1598;-55
2022/08/06 00:31:33;;;;;;;;;;;;;;;25.57;53.78;100498.31;7406666;19;1697;-55
2022/08/06 00:34:03;;;;;;;;;;;;;;;25.60;53.73;100502.50;7409846;19;1498;-55
2022/08/06 00:36:32;;;;;;;;;;;;;;;25.55;54.15;100483.28;7407054;19;1841;-54
2022/08/06 00:39:02;;;;;;;;;;;;;;;25.57;53.73;100497.47;7410743;19;1367;-55
2022/08/06 00:41:31;;;;;;;;;;;;;;;25.51;53.86;100492.81;7409079;19;1560;-55
2022/08/06 00:43:59;;;;;;;;;;;;;;;25.53;53.73;100485.34;7408436;19;1581;-55
2022/08/06 00:46:30;;;;;;;;;;;;;;;25.53;53.99;100504.28;7406123;19;1380;-55
2022/08/06 00:48:59;;;;;;;;;;;;;;;25.58;54.05;100501.84;7409097;19;1915;-55
2022/08/06 00:51:27;;;;;;;;;;;;;;;25.62;54.17;100491.50;7410306;19;1349;-55
2022/08/06 00:53:56;;;;;;;;;;;;;;;25.65;54.32;100508.22;7409895;19;1020;-54
2022/08/06 00:56:24;;;;;;;;;;;;;;;25.61;54.16;100498.78;7406911;19;1863;-55
2022/08/06 00:58:53;;;;;;;;;;;;;;;25.59;54.59;100506.25;7408345;19;1704;-55
2022/08/06 01:01:21;;;;;;;;;;;;;;;25.58;54.41;100510.81;7407463;19;1493;-54
2022/08/06 01:03:52;;;;;;;;;;;;;;;25.48;54.66;100493.16;7408942;19;1397;-55
2022/08/06 01:06:20;;;;;;;;;;;;;;;25.53;54.35;100507.00;7408983;19;1499;-54
2022/08/06 01:08:49;;;;;;;;;;;;;;;25.58;54.15;100507.25;7408618;19;1739;-55
2022/08/06 01:11:17;;;;;;;;;;;;;;;25.59;54.33;100517.09;7407818;19;1770;-55
2022/08/06 01:13:45;;;;;;;;;;;;;;;25.53;54.15;100502.41;7408331;19;1375;-54
2022/08/06 01:16:17;;;;;;;;;;;;;;;25.50;54.40;100504.66;7406931;19;1870;-55
2022/08/06 01:18:49;;;;;;;;;;;;;;;25.53;54.34;100494.28;7409158;19;1515;-55
2022/08/06 01:21:30;;;;;;;;;;;;;;;25.56;54.19;100493.06;7408854;19;1614;-55
2022/08/06 01:24:05;;;;;;;;;;;;;;;25.52;54.41;100499.88;7408829;19;1525;-55
2022/08/06 01:26:42;;;;;;;;;;;;;;;25.50;54.21;100491.94;7407638;19;1558;-55
2022/08/06 01:29:18;;;;;;;;;;;;;;;25.52;54.21;100487.19;7407242;19;1680;-55
2022/08/06 01:31:50;;;;;;;;;;;;;;;25.42;54.18;100486.63;7407105;19;1357;-55
2022/08/06 01:34:21;;;;;;;;;;;;;;;25.42;53.99;100494.75;7406613;19;1320;-55
2022/08/06 01:36:52;;;;;;;;;;;;;;;25.40;53.86;100492.22;7405940;19;1853;-55
2022/08/06 01:39:22;;;;;;;;;;;;;;;25.39;54.22;100500.53;7407451;19;1706;-55
2022/08/06 01:41:53;;;;;;;;;;;;;;;25.38;54.29;100496.13;7407660;19;1541;-55
2022/08/06 01:44:26;;;;;;;;;;;;;;;25.37;53.99;100481.78;7407857;19;1720;-55
2022/08/06 01:46:56;;;;;;;;;;;;;;;25.43;53.89;100496.44;7405990;19;1387;-55
2022/08/06 01:49:27;;;;;;;;;;;;;;;25.39;53.84;100493.25;7407186;19;1479;-55
2022/08/06 01:51:56;;;;;;;;;;;;;;;25.37;53.98;100508.84;7406926;19;1541;-55
2022/08/06 01:54:26;;;;;;;;;;;;;;;25.44;54.18;100486.44;7406932;19;1617;-54
2022/08/06 01:56:55;;;;;;;;;;;;;;;25.46;54.61;100498.75;7405217;19;1856;-55
2022/08/06 01:59:28;;;;;;;;;;;;;;;25.42;54.29;100491.19;7407440;19;1274;-55
2022/08/06 02:01:59;;;;;;;;;;;;;;;25.40;54.13;100492.22;7395484;19;1547;-55
2022/08/06 02:04:28;;;;;;;;;;;;;;;25.42;54.14;100491.19;7406671;19;1592;-55
2022/08/06 02:06:57;;;;;;;;;;;;;;;25.24;55.04;100494.25;7406193;19;1679;-54
2022/08/06 02:09:26;;;;;;;;;;;;;;;25.25;54.94;100485.94;7405051;19;1353;-55
2022/08/06 02:11:57;;;;;;;;;;;;;;;25.33;54.37;100495.88;7406543;19;1502;-55
2022/08/06 02:14:30;;;;;;;;;;;;;;;25.43;54.54;100491.03;7407479;19;910;-55
2022/08/06 02:17:00;;;;;;;;;;;;;;;25.35;54.81;100488.41;7403004;19;1853;-55
2022/08/06 02:19:31;;;;;;;;;;;;;;;25.30;54.86;100491.63;7405244;19;1238;-55
2022/08/06 02:22:02;;;;;;;;;;;;;;;25.30;54.46;100490.81;7406024;19;1518;-54
2022/08/06 02:24:32;;;;;;;;;;;;;;;25.34;54.45;100495.66;7406059;19;1342;-55
2022/08/06 02:27:02;;;;;;;;;;;;;;;25.36;54.56;100500.88;7405511;19;1609;-55
2022/08/06 02:29:34;;;;;;;;;;;;;;;25.32;54.37;100497.72;7406480;19;1546;-55
2022/08/06 02:32:02;;;;;;;;;;;;;;;25.30;54.43;100488.09;7404848;19;1399;-55
2022/08/06 02:34:31;;;;;;;;;;;;;;;25.39;54.37;100516.78;7405557;19;1609;-55
2022/08/06 02:37:01;;;;;;;;;;;;;;;25.33;54.14;100502.13;7403084;19;1861;-55
2022/08/06 02:39:32;;;;;;;;;;;;;;;25.19;54.64;100500.19;7405100;19;1527;-55
2022/08/06 02:42:04;;;;;;;;;;;;;;;25.26;54.38;100501.16;7405166;19;1338;-55
2022/08/06 02:44:41;;;;;;;;;;;;;;;25.24;54.24;100496.97;7406276;19;949;-55
2022/08/06 02:47:12;;;;;;;;;;;;;;;25.29;54.36;100483.72;7404779;19;1692;-55
2022/08/06 02:49:43;;;;;;;;;;;;;;;25.29;54.05;100494.56;7405053;19;1716;-55
2022/08/06 02:52:15;;;;;;;;;;;;;;;25.29;54.20;100494.56;7404866;19;1530;-55
2022/08/06 02:54:46;;;;;;;;;;;;;;;25.29;54.38;100497.25;7404522;19;1535;-55
2022/08/06 02:57:16;;;;;;;;;;;;;;;25.29;54.46;100500.78;7402567;19;1834;-55
2022/08/06 02:59:50;;;;;;;;;;;;;;;25.32;54.19;100511.25;7405828;19;1527;-55
2022/08/06 03:02:19;;;;;;;;;;;;;;;25.28;54.30;100504.50;7402010;19;1444;-55
2022/08/06 03:04:50;;;;;;;;;;;;;;;25.24;54.33;100502.38;7403278;19;1377;-55
2022/08/06 03:07:19;;;;;;;;;;;;;;;25.32;53.94;100511.25;7405339;19;1392;-55
2022/08/06 03:09:49;;;;;;;;;;;;;;;25.23;54.24;100501.53;7403573;19;1574;-55
2022/08/06 03:12:18;;;;;;;;;;;;;;;25.18;54.23;100502.03;7403172;19;1610;-55
2022/08/06 03:14:50;;;;;;;;;;;;;;;25.21;54.03;100517.09;7405058;19;1625;-55
2022/08/06 03:17:19;;;;;;;;;;;;;;;25.30;54.01;100513.28;7402644;19;1842;-55
2022/08/06 03:19:48;;;;;;;;;;;;;;;25.21;54.15;100519.78;7402830;19;1636;-55
2022/08/06 03:22:17;;;;;;;;;;;;;;;25.22;54.46;100509.81;7404214;19;1618;-55
2022/08/06 03:24:47;;;;;;;;;;;;;;;25.12;54.38;100515.47;7405167;19;1443;-55
2022/08/06 03:27:19;;;;;;;;;;;;;;;25.17;54.27;100505.78;7403335;19;1380;-55
2022/08/06 03:29:50;;;;;;;;;;;;;;;25.18;54.84;100509.31;7404372;19;1322;-55
2022/08/06 03:32:19;;;;;;;;;;;;;;;25.15;54.95;100525.94;7401476;19;1767;-55
2022/08/06 03:34:48;;;;;;;;;;;;;;;25.14;54.79;100518.81;7401555;19;1526;-55
2022/08/06 03:37:19;;;;;;;;;;;;;;;25.13;54.68;100520.69;7401665;19;1867;-55
2022/08/06 03:39:48;;;;;;;;;;;;;;;25.11;54.76;100535.41;7403034;19;1261;-55
2022/08/06 03:42:17;;;;;;;;;;;;;;;25.13;54.80;100517.16;7402664;19;1280;-55
2022/08/06 03:44:46;;;;;;;;;;;;;;;25.04;54.62;100516.38;7405133;19;1004;-54
2022/08/06 03:47:32;;;;;;;;;;;;;;;25.04;54.72;100512.81;7402192;19;1418;-54
2022/08/06 03:50:05;;;;;;;;;;;;;;;25.08;54.58;100509.56;7403323;19;1448;-54
2022/08/06 03:52:35;;;;;;;;;;;;;;;25.12;54.36;100515.47;7401926;19;1613;-55
2022/08/06 03:55:05;;;;;;;;;;;;;;;25.19;54.27;100525.38;7401969;19;1427;-55
2022/08/06 03:57:35;;;;;;;;;;;;;;;25.19;54.36;100528.09;7401189;19;1904;-55
2022/08/06 04:00:04;;;;;;;;;;;;;;;25.18;54.37;100525.56;7402331;19;1129;-54
2022/08/06 04:02:38;;;;;;;;;;;;;;;25.22;54.50;100521.50;7398595;19;1406;-54
2022/08/06 04:05:07;;;;;;;;;;;;;;;25.11;54.49;100527.28;7400279;19;1513;-56
2022/08/06 04:07:36;;;;;;;;;;;;;;;25.12;54.31;100529.81;7401125;19;1313;-55
2022/08/06 04:10:07;;;;;;;;;;;;;;;25.14;54.32;100525.06;7400908;19;1387;-55
2022/08/06 04:12:36;;;;;;;;;;;;;;;25.20;54.30;100531.63;7398160;19;1344;-55
2022/08/06 04:15:04;;;;;;;;;;;;;;;25.10;54.60;100539.16;7402479;19;1284;-55
2022/08/06 04:17:36;;;;;;;;;;;;;;;25.14;54.32;100524.25;7399752;19;1846;-55
2022/08/06 04:20:05;;;;;;;;;;;;;;;25.16;54.27;100533.00;7402019;19;1564;-55
2022/08/06 04:22:33;;;;;;;;;;;;;;;25.21;54.39;100546.84;7404869;19;1355;-55
2022/08/06 04:25:02;;;;;;;;;;;;;;;25.20;54.21;100537.88;7409323;19;1376;-55
2022/08/06 04:27:32;;;;;;;;;;;;;;;25.15;54.40;100532.19;7409687;19;1434;-55
2022/08/06 04:30:01;;;;;;;;;;;;;;;25.22;54.66;100553.97;7408961;19;1303;-55
2022/08/06 04:32:30;;;;;;;;;;;;;;;25.15;54.32;100543.00;7409118;19;1368;-55
2022/08/06 04:35:04;;;;;;;;;;;;;;;25.23;54.79;100550.25;7407661;19;1444;-55
2022/08/06 04:37:32;;;;;;;;;;;;;;;25.27;54.98;100537.16;7406512;19;1859;-55
2022/08/06 04:40:01;;;;;;;;;;;;;;;25.25;54.23;100536.50;7407337;19;1499;-55
2022/08/06 04:42:30;;;;;;;;;;;;;;;25.30;54.75;100551.19;7408550;19;1432;-55
2022/08/06 04:45:00;;;;;;;;;;;;;;;25.38;54.82;100542.16;7408452;19;1246;-62
2022/08/06 04:47:29;;;;;;;;;;;;;;;25.07;55.61;100540.38;7409102;19;1450;-62
2022/08/06 04:49:58;;;;;;;;;;;;;;;25.09;55.41;100562.66;7408123;19;1648;-62
2022/08/06 04:52:29;;;;;;;;;;;;;;;25.23;55.13;100560.22;7407796;19;1507;-62
2022/08/06 04:54:58;;;;;;;;;;;;;;;25.36;54.74;100541.50;7409072;19;1333;-62
2022/08/06 04:57:26;;;;;;;;;;;;;;;25.20;55.10;100546.00;7407376;19;1869;-61
2022/08/06 04:59:55;;;;;;;;;;;;;;;25.35;54.87;100546.06;7410165;19;934;-62
2022/08/06 05:02:23;;;;;;;;;;;;;;;25.32;54.78;100541.00;7404849;19;1463;-62
2022/08/06 05:04:55;;;;;;;;;;;;;;;25.32;54.91;100538.31;7407525;19;1522;-62
2022/08/06 05:07:27;;;;;;;;;;;;;;;25.36;55.15;100547.75;7408765;19;1305;-55
2022/08/06 05:09:58;;;;;;;;;;;;;;;25.39;54.98;100554.69;7406905;19;1415;-55
2022/08/06 05:12:28;;;;;;;;;;;;;;;25.34;54.93;100557.91;7408474;19;1574;-55
2022/08/06 05:14:58;;;;;;;;;;;;;;;25.39;54.76;100547.38;7408984;19;1136;-55
2022/08/06 05:17:29;;;;;;;;;;;;;;;25.40;55.34;100549.06;7404143;19;1838;-55
2022/08/06 05:20:01;;;;;;;;;;;;;;;25.38;55.22;100537.56;7406668;19;1531;-55
2022/08/06 05:22:30;;;;;;;;;;;;;;;25.43;54.99;100538.88;7407325;19;1452;-55
2022/08/06 05:25:01;;;;;;;;;;;;;;;25.40;55.41;100542.81;7407893;19;1503;-55
2022/08/06 05:27:29;;;;;;;;;;;;;;;25.45;55.11;100534.16;7406676;19;1420;-54
2022/08/06 05:29:58;;;;;;;;;;;;;;;25.41;55.16;100533.69;7408166;19;977;-55
2022/08/06 05:32:27;;;;;;;;;;;;;;;25.44;55.19;100532.47;7404837;19;1745;-55
2022/08/06 05:34:55;;;;;;;;;;;;;;;25.47;55.40;100546.47;7404420;19;1404;-55
2022/08/06 05:37:24;;;;;;;;;;;;;;;25.55;55.34;100534.72;7403613;19;1866;-55
2022/08/06 05:39:52;;;;;;;;;;;;;;;25.57;55.03;100559.75;7407292;19;1498;-55
2022/08/06 05:42:24;;;;;;;;;;;;;;;25.56;55.24;100549.94;7406684;19;1527;-55
2022/08/06 05:44:52;;;;;;;;;;;;;;;25.59;55.34;100557.69;7407952;19;1032;-55
2022/08/06 05:47:22;;;;;;;;;;;;;;;25.56;55.46;100539.94;7404328;19;1613;-55
2022/08/06 05:49:51;;;;;;;;;;;;;;;25.48;56.11;100536.47;7405361;19;1586;-55
2022/08/06 05:52:22;;;;;;;;;;;;;;;25.47;55.96;100545.66;7405414;19;1637;-54
2022/08/06 05:54:53;;;;;;;;;;;;;;;25.45;55.97;100548.53;7404891;19;1290;-54
2022/08/06 05:57:27;;;;;;;;;;;;;;;25.59;55.93;100538.75;7404830;19;1849;-55
2022/08/06 05:59:59;;;;;;;;;;;;;;;25.61;56.15;100542.13;7406354;19;1363;-59
2022/08/06 06:02:29;;;;;;;;;;;;;;;25.76;55.59;100553.78;7403042;19;1566;-55
2022/08/06 06:04:57;;;;;;;;;;;;;;;25.78;55.33;100535.50;7404097;19;1559;-55
2022/08/06 06:07:26;;;;;;;;;;;;;;;25.82;55.53;100537.81;7407486;19;1557;-55
2022/08/06 06:09:56;;;;;;;;;;;;;;;25.80;56.71;100527.16;7406023;19;1755;-55
2022/08/06 06:12:28;;;;;;;;;;;;;;;25.78;57.81;100521.09;7405494;19;1723;-55
2022/08/06 06:14:57;;;;;;;;;;;;;;;25.79;57.33;100533.63;7406274;19;1748;-55
2022/08/06 06:17:41;;;;;;;;;;;;;;;25.82;57.24;100540.53;7405318;19;1848;-56
2022/08/06 06:20:19;;;;;;;;;;;;;;;25.89;57.53;100538.78;7403080;19;1504;-55
2022/08/06 06:22:52;;;;;;;;;;;;;;;25.87;57.26;100541.66;7405395;19;1608;-55
2022/08/06 06:25:23;;;;;;;;;;;;;;;25.88;57.80;100518.09;7403985;19;1310;-54
2022/08/06 06:27:57;;;;;;;;;;;;;;;25.81;57.79;100512.63;7403645;19;1344;-55
2022/08/06 06:30:30;;;;;;;;;;;;;;;25.84;57.89;100514.94;7405884;19;1188;-54
2022/08/06 06:33:01;;;;;;;;;;;;;;;25.87;57.60;100524.56;7403774;19;1759;-54
2022/08/06 06:35:34;;;;;;;;;;;;;;;25.86;57.88;100523.72;7404475;19;1617;-55
2022/08/06 06:38:09;;;;;;;;;;;;;;;25.84;57.63;100504.09;7402175;19;1910;-55
2022/08/06 06:40:46;;;;;;;;;;;;;;;25.82;57.92;100513.44;7404224;19;1557;-55
2022/08/06 06:43:19;;;;;;;;;;;;;;;25.86;58.33;100536.41;7404729;19;1554;-55
2022/08/06 06:45:51;;;;;;;;;;;;;;;25.87;57.95;100535.41;7402985;19;1483;-54
2022/08/06 06:48:21;;;;;;;;;;;;;;;25.86;58.24;100512.88;7403147;19;1653;-55
2022/08/06 06:50:52;;;;;;;;;;;;;;;25.84;58.08;100520.34;7401394;19;1463;-55
2022/08/06 06:53:20;;;;;;;;;;;;;;;25.82;58.18;100516.16;7402510;19;1387;-55
2022/08/06 06:55:50;;;;;;;;;;;;;;;25.82;58.53;100513.44;7402533;19;1329;-55
2022/08/06 06:58:24;;;;;;;;;;;;;;;25.79;58.59;100507.38;7401340;19;1857;-55
2022/08/06 07:00:53;;;;;;;;;;;;;;;25.84;58.48;100511.38;7403291;19;1195;-55
2022/08/06 07:03:23;;;;;;;;;;;;;;;25.82;58.70;100527.00;7402881;19;1301;-54
2022/08/06 07:05:52;;;;;;;;;;;;;;;25.86;58.47;100523.72;7402984;19;1188;-55
2022/08/06 07:08:22;;;;;;;;;;;;;;;25.86;58.60;100544.53;7400458;19;1576;-53
2022/08/06 07:10:51;;;;;;;;;;;;;;;25.83;58.36;100518.69;7399629;19;1247;-55
2022/08/06 07:13:24;;;;;;;;;;;;;;;25.85;58.61;100527.47;7401431;19;1495;-55
2022/08/06 07:15:56;;;;;;;;;;;;;;;25.22;58.57;100513.38;7401019;19;1396;-54
2022/08/06 07:18:27;;;;;;;;;;;;;;;24.88;56.60;100524.63;7401006;19;1858;-55
2022/08/06 07:20:57;;;;;;;;;;;;;;;24.35;55.85;100536.06;7402462;19;1610;-54
2022/08/06 07:23:27;;;;;;;;;;;;;;;24.10;54.28;100519.09;7403981;19;1565;-53
2022/08/06 07:25:57;;;;;;;;;;;;;;;24.09;53.17;100512.00;7403483;19;1522;-55
2022/08/06 07:28:29;;;;;;;;;;;;;;;23.99;51.79;100519.47;7402238;19;1304;-54
2022/08/06 07:30:58;;;;;;;;;;;;;;;23.87;50.53;100520.88;7403717;19;1364;-54
2022/08/06 07:33:26;;;;;;;;;;;;;;;23.64;50.15;100527.00;7402933;19;1681;-55
2022/08/06 07:35:55;;;;;;;;;;;;;;;23.56;50.39;100537.81;7400539;19;1400;-54
2022/08/06 07:38:24;;;;;;;;;;;;;;;23.78;50.68;100544.38;7398641;19;1867;-55
2022/08/06 07:40:55;;;;;;;;;;;;;;;23.78;50.85;100520.91;7403749;19;1554;-54
2022/08/06 07:43:25;;;;;;;;;;;;;;;23.75;50.95;100528.47;7400752;19;1522;-55
2022/08/06 07:45:58;;;;;;;;;;;;;;;23.81;50.86;100536.78;7404108;19;1340;-56
2022/08/06 07:48:30;;;;;;;;;;;;;;;23.76;50.71;100536.41;7401690;19;1690;-54
2022/08/06 07:50:59;;;;;;;;;;;;;;;23.75;49.98;100518.50;7402438;19;1463;-54
2022/08/06 07:53:29;;;;;;;;;;;;;;;23.64;50.67;100532.41;7397493;19;1765;-54
2022/08/06 07:55:59;;;;;;;;;;;;;;;23.61;50.36;100519.22;7404922;19;1392;-53
2022/08/06 07:58:28;;;;;;;;;;;;;;;23.55;50.50;100522.63;7405540;19;1859;-62
2022/08/06 08:00:59;;;;;;;;;;;;;;;24.05;52.76;100502.56;7409517;19;1033;-62
2022/08/06 08:06:22;;;;;;;;;;;;;;;24.31;52.82;100510.41;7410465;19;1582;-62
2022/08/06 08:08:52;;;;;;;;;;;;;;;24.12;52.54;100525.19;7408904;19;1625;-62
2022/08/06 08:11:21;;;;;;;;;;;;;;;24.17;52.53;100525.50;7410132;19;1629;-62
2022/08/06 08:13:49;;;;;;;;;;;;;;;24.24;52.69;100503.19;7410506;19;1664;-63
2022/08/06 08:16:21;;;;;;;;;;;;;;;24.34;53.74;100512.75;7411641;19;1616;-63
2022/08/06 08:18:49;;;;;;;;;;;;;;;24.41;54.96;100518.28;7410181;19;1850;-63
2022/08/06 08:21:18;;;;;;;;;;;;;;;24.53;55.64;100521.44;7411172;19;1514;-62
2022/08/06 08:23:48;;;;;;;;;;;;;;;24.53;56.52;100506.09;7409604;19;1685;-62
2022/08/06 08:26:17;;;;;;;;;;;;;;;24.52;56.97;100517.91;7410070;19;1751;-63
2022/08/06 08:28:45;;;;;;;;;;;;;;;24.47;58.06;100514.88;7410291;19;1547;-62
2022/08/06 08:31:14;;;;;;;;;;;;;;;24.34;58.93;100520.03;7409721;19;1584;-63
2022/08/06 08:33:45;;;;;;;;;;;;;;;24.51;58.73;100512.69;7410795;19;1009;-62
2022/08/06 08:36:14;;;;;;;;;;;;;;;24.38;59.73;100508.66;7410277;19;1797;-62
2022/08/06 08:38:42;;;;;;;;;;;;;;;24.34;60.01;100506.50;7407481;19;1845;-63
2022/08/06 08:41:14;;;;;;;;;;;;;;;24.42;60.36;100510.00;7408257;19;1287;-62
2022/08/06 08:43:46;;;;;;;;;;;;;;;24.46;60.03;100499.66;7409242;19;1535;-63
2022/08/06 08:46:15;;;;;;;;;;;;;;;24.45;60.42;100513.34;7409314;19;1195;-63
2022/08/06 08:48:46;;;;;;;;;;;;;;;24.37;59.99;100507.00;7410519;19;1187;-63
2022/08/06 08:51:16;;;;;;;;;;;;;;;24.51;59.05;100500.03;7407644;19;1751;-63
2022/08/06 08:53:47;;;;;;;;;;;;;;;24.60;59.03;100500.81;7409705;19;1468;-63
2022/08/06 08:56:16;;;;;;;;;;;;;;;24.51;59.82;100509.97;7410484;19;1545;-63
2022/08/06 08:58:44;;;;;;;;;;;;;;;24.35;60.22;100497.38;7408333;19;1849;-63
2022/08/06 09:01:13;;;;;;;;;;;;;;;24.41;60.04;100499.34;7407983;19;1562;-63
2022/08/06 09:03:42;;;;;;;;;;;;;;;24.52;59.97;100509.81;7410456;19;1499;-63
2022/08/06 09:06:14;;;;;;;;;;;;;;;24.50;60.05;100500.16;7409731;19;1563;-63
2022/08/06 09:08:43;;;;;;;;;;;;;;;24.50;59.75;100506.44;7407294;19;1534;-62
2022/08/06 09:11:11;;;;;;;;;;;;;;;24.37;60.34;100498.03;7407974;19;1728;-62
2022/08/06 09:13:40;;;;;;;;;;;;;;;24.55;59.13;100497.78;7408666;19;1494;-63
2022/08/06 09:16:09;;;;;;;;;;;;;;;24.63;58.51;100495.06;7410079;19;988;-63
2022/08/06 09:18:37;;;;;;;;;;;;;;;24.59;58.48;100488.28;7407687;19;1854;-62
2022/08/06 09:21:06;;;;;;;;;;;;;;;24.60;58.21;100490.81;7408592;19;1764;-62
2022/08/06 09:23:39;;;;;;;;;;;;;;;24.51;58.38;100486.50;7408198;19;1616;-62
2022/08/06 09:26:08;;;;;;;;;;;;;;;24.55;58.03;100482.44;7408691;19;1624;-62
2022/08/06 09:28:37;;;;;;;;;;;;;;;24.51;58.23;100481.09;7407849;19;1534;-63
2022/08/06 09:31:08;;;;;;;;;;;;;;;24.57;58.17;100493.03;7409725;19;1055;-62
2022/08/06 09:33:37;;;;;;;;;;;;;;;24.62;57.84;100498.75;7408829;19;1731;-62
2022/08/06 09:36:07;;;;;;;;;;;;;;;24.51;58.12;100491.91;7408612;19;1653;-63
2022/08/06 09:38:47;;;;;;;;;;;;;;;24.56;57.66;100489.50;7406413;19;1853;-61
2022/08/06 09:41:17;;;;;;;;;;;;;;;24.54;57.68;100475.31;7405047;19;1343;-63
2022/08/06 09:43:46;;;;;;;;;;;;;;;24.46;57.55;100471.81;7407930;19;1613;-63
2022/08/06 09:46:15;;;;;;;;;;;;;;;24.57;57.68;100488.50;7407961;19;1593;-63
2022/08/06 09:48:58;;;;;;;;;;;;;;;24.51;57.60;100481.09;7408466;19;1443;-62
2022/08/06 09:51:27;;;;;;;;;;;;;;;24.41;57.80;100484.00;7408079;19;1431;-62
2022/08/06 09:53:59;;;;;;;;;;;;;;;24.47;57.50;100473.47;7407717;19;1589;-63
2022/08/06 09:56:28;;;;;;;;;;;;;;;24.44;57.42;100477.38;7404074;19;1689;-62
2022/08/06 09:59:00;;;;;;;;;;;;;;;24.43;57.44;100467.59;7404476;19;1856;-62
2022/08/06 10:01:28;;;;;;;;;;;;;;;24.47;57.33;100485.16;7405696;19;1555;-62
2022/08/06 10:03:57;;;;;;;;;;;;;;;24.46;57.37;100463.69;7407624;19;1411;-62
2022/08/06 10:06:26;;;;;;;;;;;;;;;24.45;57.23;100467.41;7407270;19;1641;-62
2022/08/06 10:09:10;;;;;;;;;;;;;;;24.49;57.53;100469.59;7407609;19;1402;-62
2022/08/06 10:11:40;;;;;;;;;;;;;;;24.50;57.43;100454.22;7405800;19;1735;-61
2022/08/06 10:14:08;;;;;;;;;;;;;;;24.47;57.34;100473.47;7404081;19;1480;-62
2022/08/06 10:16:37;;;;;;;;;;;;;;;24.51;57.38;100475.69;7403911;19;1545;-62
2022/08/06 10:19:06;;;;;;;;;;;;;;;24.51;57.27;100470.28;7401782;19;1867;-62
2022/08/06 10:21:36;;;;;;;;;;;;;;;24.49;57.50;100466.03;7404692;19;1388;-62
2022/08/06 10:24:05;;;;;;;;;;;;;;;24.52;57.20;100465.72;7406158;19;1317;-62
2022/08/06 10:26:36;;;;;;;;;;;;;;;24.48;56.97;100458.97;7405175;19;1859;-62
2022/08/06 10:29:05;;;;;;;;;;;;;;;24.44;57.37;100458.47;7407054;19;1673;-62
2022/08/06 10:31:34;;;;;;;;;;;;;;;24.44;57.31;100463.88;7404182;19;1750;-62
2022/08/06 10:34:05;;;;;;;;;;;;;;;24.47;56.97;100458.13;7404656;19;1680;-62
2022/08/06 10:36:37;;;;;;;;;;;;;;;24.48;56.64;100442.75;7405658;19;1683;-62
2022/08/06 10:39:06;;;;;;;;;;;;;;;24.44;56.94;100438.72;7404679;19;1851;-62
2022/08/06 10:41:40;;;;;;;;;;;;;;;24.41;57.14;100451.56;7406383;19;1425;-62
2022/08/06 10:44:09;;;;;;;;;;;;;;;24.44;56.99;100444.94;7405669;19;1433;-62
2022/08/06 10:46:38;;;;;;;;;;;;;;;24.44;57.09;100444.13;7403057;19;1384;-53
2022/08/06 10:49:08;;;;;;;;;;;;;;;24.46;56.79;100436.66;7405090;19;1285;-53
2022/08/06 10:51:36;;;;;;;;;;;;;;;24.43;56.98;100435.16;7405524;19;1368;-54
2022/08/06 10:54:05;;;;;;;;;;;;;;;24.50;56.69;100444.25;7405589;19;1344;-53
2022/08/06 10:56:34;;;;;;;;;;;;;;;24.47;56.56;100432.94;7404460;19;1463;-53
2022/08/06 10:59:05;;;;;;;;;;;;;;;24.47;56.73;100436.50;7403686;19;1857;-53
2022/08/06 11:01:38;;;;;;;;;;;;;;;24.40;57.17;100422.84;7400442;19;1539;-53
2022/08/06 11:04:16;;;;;;;;;;;;;;;24.43;57.19;100427.03;7403242;19;1331;-53
2022/08/06 11:06:59;;;;;;;;;;;;;;;24.52;56.91;100428.72;7405257;19;1588;-53
2022/08/06 11:09:42;;;;;;;;;;;;;;;24.53;57.37;100424.13;7404209;19;1653;-53
2022/08/06 11:12:20;;;;;;;;;;;;;;;24.61;57.23;100426.78;7404281;19;1328;-53
2022/08/06 11:14:52;;;;;;;;;;;;;;;24.56;57.87;100415.69;7404909;19;1515;-53
2022/08/06 11:17:20;;;;;;;;;;;;;;;24.56;57.36;100413.81;7404134;19;1554;-53
2022/08/06 11:19:49;;;;;;;;;;;;;;;24.64;57.58;100420.19;7400344;19;1855;-54
2022/08/06 11:22:33;;;;;;;;;;;;;;;24.60;57.65;100428.63;7404816;19;1531;-53
2022/08/06 11:25:02;;;;;;;;;;;;;;;24.61;57.84;100416.81;7404085;19;1768;-53
2022/08/06 11:27:45;;;;;;;;;;;;;;;24.60;57.63;100420.53;7403809;19;1621;-54
2022/08/06 11:30:16;;;;;;;;;;;;;;;24.66;57.87;100418.13;7404623;19;1601;-53
2022/08/06 11:32:46;;;;;;;;;;;;;;;24.69;57.85;100398.84;7408676;19;1585;-53
2022/08/06 11:35:29;;;;;;;;;;;;;;;24.64;57.78;100415.59;7410686;19;1194;-53
2022/08/06 11:37:57;;;;;;;;;;;;;;;24.56;58.20;100403.00;7411292;19;1856;-53
2022/08/06 11:40:26;;;;;;;;;;;;;;;24.51;58.84;100408.13;7410221;19;1401;-55
2022/08/06 11:42:55;;;;;;;;;;;;;;;24.41;59.19;100413.72;7409368;19;1636;-54
2022/08/06 11:45:26;;;;;;;;;;;;;;;24.12;60.16;100411.72;7408749;19;1721;-57
2022/08/06 11:48:06;;;;;;;;;;;;;;;24.13;60.28;100404.44;7410421;19;1715;-55
2022/08/06 11:50:34;;;;;;;;;;;;;;;24.25;60.57;100411.13;7407449;19;1694;-56
2022/08/06 11:53:03;;;;;;;;;;;;;;;24.15;60.21;100408.66;7406432;19;1329;-60
2022/08/06 11:55:32;;;;;;;;;;;;;;;24.17;60.44;100419.28;7408625;19;1202;-63
2022/08/06 11:58:27;;;;;;;;;;;;;;;24.08;60.46;100410.38;7408995;19;1922;-65
2022/08/06 12:01:02;;;;;;;;;;;;;;;24.05;60.59;100413.44;7408090;19;1410;-68
2022/08/06 12:03:40;;;;;;;;;;;;;;;24.07;60.43;100389.78;7408552;19;1664;-66
2022/08/06 12:06:21;;;;;;;;;;;;;;;23.99;60.33;100395.25;7410270;19;1525;-67
2022/08/06 12:09:04;;;;;;;;;;;;;;;24.04;59.85;100390.16;7412344;19;1558;-66
2022/08/06 12:11:35;;;;;;;;;;;;;;;23.99;60.05;100395.25;7410259;19;1607;-70
2022/08/06 12:14:03;;;;;;;;;;;;;;;24.09;59.38;100390.44;7409736;19;1471;-62
2022/08/06 12:16:42;;;;;;;;;;;;;;;24.14;59.68;100392.63;7408584;19;1502;-62
2022/08/06 12:19:14;;;;;;;;;;;;;;;24.04;59.30;100381.22;7408801;19;1857;-62
2022/08/06 12:21:44;;;;;;;;;;;;;;;23.93;59.61;100385.16;7409838;19;1293;-61
2022/08/06 12:24:13;;;;;;;;;;;;;;;23.93;59.57;100371.66;7408949;19;1309;-62
2022/08/06 12:26:42;;;;;;;;;;;;;;;23.91;59.26;100382.63;7410610;19;1280;-63
2022/08/06 12:29:11;;;;;;;;;;;;;;;23.98;59.20;100390.88;7407501;19;1343;-61
2022/08/06 12:31:42;;;;;;;;;;;;;;;23.96;59.15;100369.44;7408604;19;1629;-61
2022/08/06 12:34:10;;;;;;;;;;;;;;;23.96;58.91;100384.81;7407610;19;1218;-62
2022/08/06 12:36:39;;;;;;;;;;;;;;;24.53;57.99;100381.75;7407403;19;1455;-61
2022/08/06 12:39:09;;;;;;;;;;;;;;;24.94;56.55;100375.94;7406698;19;1863;-63
2022/08/06 12:41:42;;;;;;;;;;;;;;;25.16;56.38;100371.50;7407875;19;1237;-61
2022/08/06 12:44:12;;;;;;;;;;;;;;;25.30;56.57;100377.13;7404659;19;1360;-63
2022/08/06 12:46:43;;;;;;;;;;;;;;;25.35;56.54;100370.13;7405165;19;1583;-62
2022/08/06 12:49:12;;;;;;;;;;;;;;;25.41;56.41;100368.56;7408502;19;1273;-64
2022/08/06 12:51:40;;;;;;;;;;;;;;;25.44;56.68;100360.03;7407067;19;1593;-60
2022/08/06 12:54:10;;;;;;;;;;;;;;;25.45;56.79;100356.31;7408480;19;1363;-63
2022/08/06 12:56:40;;;;;;;;;;;;;;;25.53;56.87;100366.22;7408588;19;1329;-61
2022/08/06 12:59:13;;;;;;;;;;;;;;;25.59;56.76;100360.03;7402657;19;1841;-62
2022/08/06 13:01:47;;;;;;;;;;;;;;;25.60;57.04;100350.88;7405726;19;1489;-61
2022/08/06 13:04:16;;;;;;;;;;;;;;;25.70;56.81;100359.53;7407309;19;1625;-61
2022/08/06 13:06:44;;;;;;;;;;;;;;;25.67;56.89;100351.81;7406383;19;1355;-61
2022/08/06 13:09:13;;;;;;;;;;;;;;;25.71;57.12;100363.09;7406555;19;1429;-63